sensor_id;sensor_type;location;lat;lon;timestamp;P1;durP1;ratioP1;P2;durP2;ratioP2
1777;SDS011;71547;50.146;8.174;2024-01-07T00:00:06;8.45;;;6.10;;
1777;SDS011;71547;50.146;8.174;2024-01-07T00:05:47;7.70;;;6.03;;
1777;SDS011;71547;50.146;8.174;2024-01-07T00:08:27;7.47;;;5.22;;
1777;SDS011;71547;50.146;8.174;2024-01-07T00:10:59;7.30;;;5.43;;
1777;SDS011;71547;50.146;8.174;2024-01-07T00:13:33;6.05;;;5.28;;
1777;SDS011;71547;50.146;8.174;2024-01-07T00:16:20;10.70;;;5.80;;
1777;SDS011;71547;50.146;8.174;2024-01-07T00:18:52;7.40;;;5.80;;
1777;SDS011;71547;50.146;8.174;2024-01-07T00:21:19;6.07;;;4.95;;
1777;SDS011;71547;50.146;8.174;2024-01-07T00:23:47;6.78;;;5.55;;
1777;SDS011;71547;50.146;8.174;2024-01-07T00:26:14;6.10;;;5.43;;
1777;SDS011;71547;50.146;8.174;2024-01-07T00:28:41;5.82;;;4.72;;
1777;SDS011;71547;50.146;8.174;2024-01-07T00:31:08;4.95;;;4.55;;
1777;SDS011;71547;50.146;8.174;2024-01-07T00:33:55;6.55;;;5.85;;
1777;SDS011;71547;50.146;8.174;2024-01-07T00:36:29;7.75;;;5.35;;
1777;SDS011;71547;50.146;8.174;2024-01-07T00:39:00;6.05;;;5.45;;
1777;SDS011;71547;50.146;8.174;2024-01-07T00:41:32;5.65;;;5.05;;
1777;SDS011;71547;50.146;8.174;2024-01-07T00:44:12;5.70;;;4.85;;
1777;SDS011;71547;50.146;8.174;2024-01-07T00:46:42;6.25;;;5.25;;
1777;SDS011;71547;50.146;8.174;2024-01-07T00:49:15;6.80;;;5.85;;
1777;SDS011;71547;50.146;8.174;2024-01-07T00:51:45;6.78;;;5.60;;
1777;SDS011;71547;50.146;8.174;2024-01-07T00:54:16;6.32;;;5.60;;
1777;SDS011;71547;50.146;8.174;2024-01-07T00:56:52;8.05;;;6.28;;
1777;SDS011;71547;50.146;8.174;2024-01-07T00:59:27;6.57;;;5.72;;
1777;SDS011;71547;50.146;8.174;2024-01-07T01:02:01;6.88;;;5.90;;
1777;SDS011;71547;50.146;8.174;2024-01-07T01:04:38;10.32;;;6.18;;
1777;SDS011;71547;50.146;8.174;2024-01-07T01:07:08;6.93;;;6.20;;
1777;SDS011;71547;50.146;8.174;2024-01-07T01:09:41;6.63;;;5.53;;
1777;SDS011;71547;50.146;8.174;2024-01-07T01:12:09;5.57;;;5.07;;
1777;SDS011;71547;50.146;8.174;2024-01-07T01:14:44;8.45;;;6.07;;
1777;SDS011;71547;50.146;8.174;2024-01-07T01:17:19;6.22;;;5.25;;
1777;SDS011;71547;50.146;8.174;2024-01-07T01:20:04;12.10;;;5.38;;
1777;SDS011;71547;50.146;8.174;2024-01-07T01:22:37;6.78;;;5.70;;
1777;SDS011;71547;50.146;8.174;2024-01-07T01:25:14;5.45;;;5.00;;
1777;SDS011;71547;50.146;8.174;2024-01-07T01:27:41;6.47;;;5.85;;
1777;SDS011;71547;50.146;8.174;2024-01-07T01:30:19;9.40;;;6.53;;
1777;SDS011;71547;50.146;8.174;2024-01-07T01:33:02;8.43;;;5.60;;
1777;SDS011;71547;50.146;8.174;2024-01-07T01:35:39;7.10;;;6.38;;
1777;SDS011;71547;50.146;8.174;2024-01-07T01:38:09;6.70;;;6.00;;
1777;SDS011;71547;50.146;8.174;2024-01-07T01:40:50;12.77;;;6.05;;
1777;SDS011;71547;50.146;8.174;2024-01-07T01:43:39;6.15;;;5.28;;
1777;SDS011;71547;50.146;8.174;2024-01-07T01:46:07;5.95;;;5.25;;
1777;SDS011;71547;50.146;8.174;2024-01-07T01:48:43;6.18;;;5.60;;
1777;SDS011;71547;50.146;8.174;2024-01-07T01:51:21;6.05;;;5.45;;
1777;SDS011;71547;50.146;8.174;2024-01-07T01:53:53;6.22;;;5.63;;
1777;SDS011;71547;50.146;8.174;2024-01-07T01:56:24;5.00;;;4.55;;
1777;SDS011;71547;50.146;8.174;2024-01-07T01:59:12;6.30;;;5.38;;
1777;SDS011;71547;50.146;8.174;2024-01-07T02:01:42;6.53;;;5.50;;
1777;SDS011;71547;50.146;8.174;2024-01-07T02:04:33;6.45;;;5.50;;
1777;SDS011;71547;50.146;8.174;2024-01-07T02:07:08;7.38;;;5.53;;
1777;SDS011;71547;50.146;8.174;2024-01-07T02:09:38;6.57;;;5.88;;
1777;SDS011;71547;50.146;8.174;2024-01-07T02:12:09;6.70;;;5.80;;
1777;SDS011;71547;50.146;8.174;2024-01-07T02:14:38;6.13;;;5.22;;
1777;SDS011;71547;50.146;8.174;2024-01-07T02:17:16;6.20;;;5.57;;
1777;SDS011;71547;50.146;8.174;2024-01-07T02:19:51;8.75;;;6.20;;
1777;SDS011;71547;50.146;8.174;2024-01-07T02:22:32;7.07;;;5.53;;
1777;SDS011;71547;50.146;8.174;2024-01-07T02:25:06;5.82;;;5.25;;
1777;SDS011;71547;50.146;8.174;2024-01-07T02:27:35;5.50;;;5.00;;
1777;SDS011;71547;50.146;8.174;2024-01-07T02:30:02;6.95;;;5.15;;
1777;SDS011;71547;50.146;8.174;2024-01-07T02:32:30;6.63;;;5.43;;
1777;SDS011;71547;50.146;8.174;2024-01-07T02:35:00;6.90;;;5.72;;
1777;SDS011;71547;50.146;8.174;2024-01-07T02:37:28;5.82;;;4.88;;
1777;SDS011;71547;50.146;8.174;2024-01-07T02:39:55;6.60;;;5.68;;
1777;SDS011;71547;50.146;8.174;2024-01-07T02:42:28;6.32;;;5.70;;
1777;SDS011;71547;50.146;8.174;2024-01-07T02:44:55;6.32;;;5.63;;
1777;SDS011;71547;50.146;8.174;2024-01-07T02:47:23;6.65;;;5.22;;
1777;SDS011;71547;50.146;8.174;2024-01-07T02:49:50;6.25;;;4.90;;
1777;SDS011;71547;50.146;8.174;2024-01-07T02:52:17;5.75;;;5.15;;
1777;SDS011;71547;50.146;8.174;2024-01-07T02:54:44;5.80;;;5.18;;
1777;SDS011;71547;50.146;8.174;2024-01-07T02:57:12;7.60;;;5.20;;
1777;SDS011;71547;50.146;8.174;2024-01-07T02:59:40;4.70;;;4.20;;
1777;SDS011;71547;50.146;8.174;2024-01-07T03:02:07;6.22;;;5.32;;
1777;SDS011;71547;50.146;8.174;2024-01-07T03:04:34;5.88;;;5.15;;
1777;SDS011;71547;50.146;8.174;2024-01-07T03:07:01;4.95;;;4.45;;
1777;SDS011;71547;50.146;8.174;2024-01-07T03:09:29;6.15;;;4.88;;
1777;SDS011;71547;50.146;8.174;2024-01-07T03:11:56;6.50;;;5.25;;
1777;SDS011;71547;50.146;8.174;2024-01-07T03:14:23;5.88;;;5.30;;
1777;SDS011;71547;50.146;8.174;2024-01-07T03:16:52;5.40;;;4.28;;
1777;SDS011;71547;50.146;8.174;2024-01-07T03:19:19;4.78;;;4.35;;
1777;SDS011;71547;50.146;8.174;2024-01-07T03:21:47;7.03;;;5.00;;
1777;SDS011;71547;50.146;8.174;2024-01-07T03:24:15;5.45;;;4.95;;
1777;SDS011;71547;50.146;8.174;2024-01-07T03:26:45;4.72;;;4.22;;
1777;SDS011;71547;50.146;8.174;2024-01-07T03:29:12;6.60;;;5.00;;
1777;SDS011;71547;50.146;8.174;2024-01-07T03:31:39;5.28;;;4.78;;
1777;SDS011;71547;50.146;8.174;2024-01-07T03:34:07;5.90;;;5.00;;
1777;SDS011;71547;50.146;8.174;2024-01-07T03:36:35;5.38;;;4.88;;
1777;SDS011;71547;50.146;8.174;2024-01-07T03:39:02;5.57;;;5.03;;
1777;SDS011;71547;50.146;8.174;2024-01-07T03:41:29;6.63;;;5.22;;
1777;SDS011;71547;50.146;8.174;2024-01-07T03:43:59;6.85;;;5.20;;
1777;SDS011;71547;50.146;8.174;2024-01-07T03:46:26;4.90;;;4.40;;
1777;SDS011;71547;50.146;8.174;2024-01-07T03:48:53;5.13;;;4.55;;
1777;SDS011;71547;50.146;8.174;2024-01-07T03:51:22;4.40;;;4.00;;
1777;SDS011;71547;50.146;8.174;2024-01-07T03:53:49;4.85;;;4.20;;
1777;SDS011;71547;50.146;8.174;2024-01-07T03:56:16;4.70;;;4.22;;
1777;SDS011;71547;50.146;8.174;2024-01-07T03:58:43;6.80;;;4.70;;
1777;SDS011;71547;50.146;8.174;2024-01-07T04:01:11;5.10;;;4.60;;
1777;SDS011;71547;50.146;8.174;2024-01-07T04:03:43;5.28;;;3.90;;
1777;SDS011;71547;50.146;8.174;2024-01-07T04:06:10;3.95;;;3.55;;
1777;SDS011;71547;50.146;8.174;2024-01-07T04:08:38;5.97;;;4.55;;
1777;SDS011;71547;50.146;8.174;2024-01-07T04:11:05;3.75;;;3.45;;
1777;SDS011;71547;50.146;8.174;2024-01-07T04:13:33;5.13;;;4.63;;
1777;SDS011;71547;50.146;8.174;2024-01-07T04:16:00;6.68;;;4.63;;
1777;SDS011;71547;50.146;8.174;2024-01-07T04:18:27;5.15;;;4.65;;
1777;SDS011;71547;50.146;8.174;2024-01-07T04:20:54;5.55;;;4.68;;
1777;SDS011;71547;50.146;8.174;2024-01-07T04:23:21;4.50;;;4.10;;
1777;SDS011;71547;50.146;8.174;2024-01-07T04:25:50;4.22;;;3.83;;
1777;SDS011;71547;50.146;8.174;2024-01-07T04:28:17;4.50;;;4.07;;
1777;SDS011;71547;50.146;8.174;2024-01-07T04:30:44;5.75;;;4.80;;
1777;SDS011;71547;50.146;8.174;2024-01-07T04:33:11;4.85;;;4.10;;
1777;SDS011;71547;50.146;8.174;2024-01-07T04:35:38;6.97;;;3.83;;
1777;SDS011;71547;50.146;8.174;2024-01-07T04:38:06;5.82;;;4.75;;
1777;SDS011;71547;50.146;8.174;2024-01-07T04:40:34;4.55;;;4.15;;
1777;SDS011;71547;50.146;8.174;2024-01-07T04:43:02;5.90;;;4.70;;
1777;SDS011;71547;50.146;8.174;2024-01-07T04:45:30;6.05;;;4.93;;
1777;SDS011;71547;50.146;8.174;2024-01-07T04:47:57;4.20;;;3.90;;
1777;SDS011;71547;50.146;8.174;2024-01-07T04:50:24;5.55;;;4.32;;
1777;SDS011;71547;50.146;8.174;2024-01-07T04:52:51;5.88;;;4.13;;
1777;SDS011;71547;50.146;8.174;2024-01-07T04:55:18;5.05;;;4.18;;
1777;SDS011;71547;50.146;8.174;2024-01-07T04:57:45;4.30;;;3.90;;
1777;SDS011;71547;50.146;8.174;2024-01-07T05:00:15;4.18;;;3.40;;
1777;SDS011;71547;50.146;8.174;2024-01-07T05:02:42;3.88;;;3.40;;
1777;SDS011;71547;50.146;8.174;2024-01-07T05:05:10;5.03;;;3.70;;
1777;SDS011;71547;50.146;8.174;2024-01-07T05:07:37;4.70;;;3.50;;
1777;SDS011;71547;50.146;8.174;2024-01-07T05:10:05;4.63;;;3.92;;
1777;SDS011;71547;50.146;8.174;2024-01-07T05:12:33;3.95;;;3.65;;
1777;SDS011;71547;50.146;8.174;2024-01-07T05:15:00;6.18;;;4.25;;
1777;SDS011;71547;50.146;8.174;2024-01-07T05:17:30;4.18;;;3.78;;
1777;SDS011;71547;50.146;8.174;2024-01-07T05:19:57;4.35;;;3.63;;
1777;SDS011;71547;50.146;8.174;2024-01-07T05:22:24;4.10;;;3.65;;
1777;SDS011;71547;50.146;8.174;2024-01-07T05:24:51;4.13;;;3.63;;
1777;SDS011;71547;50.146;8.174;2024-01-07T05:27:18;3.10;;;2.90;;
1777;SDS011;71547;50.146;8.174;2024-01-07T05:29:45;3.03;;;2.83;;
1777;SDS011;71547;50.146;8.174;2024-01-07T05:32:13;3.85;;;3.20;;
1777;SDS011;71547;50.146;8.174;2024-01-07T05:34:41;3.80;;;3.33;;
1777;SDS011;71547;50.146;8.174;2024-01-07T05:37:09;6.47;;;3.85;;
1777;SDS011;71547;50.146;8.174;2024-01-07T05:39:36;4.90;;;3.10;;
1777;SDS011;71547;50.146;8.174;2024-01-07T05:42:03;3.80;;;3.50;;
1777;SDS011;71547;50.146;8.174;2024-01-07T05:44:30;3.85;;;3.55;;
1777;SDS011;71547;50.146;8.174;2024-01-07T05:46:58;5.03;;;4.05;;
1777;SDS011;71547;50.146;8.174;2024-01-07T05:49:25;6.88;;;4.53;;
1777;SDS011;71547;50.146;8.174;2024-01-07T05:51:53;4.20;;;3.80;;
1777;SDS011;71547;50.146;8.174;2024-01-07T05:54:20;6.78;;;4.40;;
1777;SDS011;71547;50.146;8.174;2024-01-07T05:56:48;4.30;;;3.88;;
1777;SDS011;71547;50.146;8.174;2024-01-07T05:59:15;5.50;;;4.80;;
1777;SDS011;71547;50.146;8.174;2024-01-07T06:01:42;6.78;;;5.18;;
1777;SDS011;71547;50.146;8.174;2024-01-07T06:04:10;8.07;;;5.10;;
1777;SDS011;71547;50.146;8.174;2024-01-07T06:06:37;9.30;;;5.57;;
1777;SDS011;71547;50.146;8.174;2024-01-07T06:09:06;8.27;;;7.45;;
1777;SDS011;71547;50.146;8.174;2024-01-07T06:11:33;10.45;;;6.30;;
1777;SDS011;71547;50.146;8.174;2024-01-07T06:14:00;9.25;;;5.97;;
1777;SDS011;71547;50.146;8.174;2024-01-07T06:16:27;10.25;;;5.70;;
1777;SDS011;71547;50.146;8.174;2024-01-07T06:18:54;10.65;;;6.78;;
1777;SDS011;71547;50.146;8.174;2024-01-07T06:21:22;9.35;;;6.40;;
1777;SDS011;71547;50.146;8.174;2024-01-07T06:23:49;8.20;;;6.57;;
1777;SDS011;71547;50.146;8.174;2024-01-07T06:26:17;11.75;;;7.30;;
1777;SDS011;71547;50.146;8.174;2024-01-07T06:28:45;10.85;;;8.13;;
1777;SDS011;71547;50.146;8.174;2024-01-07T06:31:12;10.93;;;7.57;;
1777;SDS011;71547;50.146;8.174;2024-01-07T06:33:39;14.20;;;8.05;;
1777;SDS011;71547;50.146;8.174;2024-01-07T06:36:06;8.02;;;6.75;;
1777;SDS011;71547;50.146;8.174;2024-01-07T06:38:34;10.95;;;7.35;;
1777;SDS011;71547;50.146;8.174;2024-01-07T06:41:01;14.27;;;7.40;;
1777;SDS011;71547;50.146;8.174;2024-01-07T06:43:32;7.82;;;6.90;;
1777;SDS011;71547;50.146;8.174;2024-01-07T06:45:59;8.80;;;6.85;;
1777;SDS011;71547;50.146;8.174;2024-01-07T06:48:27;13.27;;;7.57;;
1777;SDS011;71547;50.146;8.174;2024-01-07T06:50:54;8.77;;;6.68;;
1777;SDS011;71547;50.146;8.174;2024-01-07T06:53:21;10.18;;;7.00;;
1777;SDS011;71547;50.146;8.174;2024-01-07T06:55:48;12.35;;;8.52;;
1777;SDS011;71547;50.146;8.174;2024-01-07T06:58:15;12.45;;;7.63;;
1777;SDS011;71547;50.146;8.174;2024-01-07T07:00:44;9.52;;;7.63;;
1777;SDS011;71547;50.146;8.174;2024-01-07T07:03:11;11.50;;;7.05;;
1777;SDS011;71547;50.146;8.174;2024-01-07T07:05:39;10.75;;;7.45;;
1777;SDS011;71547;50.146;8.174;2024-01-07T07:08:06;10.65;;;6.90;;
1777;SDS011;71547;50.146;8.174;2024-01-07T07:10:33;8.95;;;7.30;;
1777;SDS011;71547;50.146;8.174;2024-01-07T07:13:00;7.55;;;6.55;;
1777;SDS011;71547;50.146;8.174;2024-01-07T07:15:28;8.35;;;7.00;;
1777;SDS011;71547;50.146;8.174;2024-01-07T07:17:56;8.05;;;7.25;;
1777;SDS011;71547;50.146;8.174;2024-01-07T07:20:24;10.65;;;7.30;;
1777;SDS011;71547;50.146;8.174;2024-01-07T07:22:51;9.88;;;7.00;;
1777;SDS011;71547;50.146;8.174;2024-01-07T07:25:18;8.10;;;6.55;;
1777;SDS011;71547;50.146;8.174;2024-01-07T07:27:46;6.80;;;6.05;;
1777;SDS011;71547;50.146;8.174;2024-01-07T07:30:13;8.52;;;6.03;;
1777;SDS011;71547;50.146;8.174;2024-01-07T07:32:41;9.60;;;6.72;;
1777;SDS011;71547;50.146;8.174;2024-01-07T07:35:09;6.28;;;5.55;;
1777;SDS011;71547;50.146;8.174;2024-01-07T07:37:36;5.97;;;5.38;;
1777;SDS011;71547;50.146;8.174;2024-01-07T07:40:04;6.70;;;6.00;;
1777;SDS011;71547;50.146;8.174;2024-01-07T07:42:33;6.82;;;5.97;;
1777;SDS011;71547;50.146;8.174;2024-01-07T07:45:00;6.75;;;5.57;;
1777;SDS011;71547;50.146;8.174;2024-01-07T07:47:28;9.23;;;6.60;;
1777;SDS011;71547;50.146;8.174;2024-01-07T07:49:56;9.27;;;6.18;;
1777;SDS011;71547;50.146;8.174;2024-01-07T07:52:25;6.88;;;5.72;;
1777;SDS011;71547;50.146;8.174;2024-01-07T07:54:52;10.77;;;6.50;;
1777;SDS011;71547;50.146;8.174;2024-01-07T07:57:20;7.53;;;6.45;;
1777;SDS011;71547;50.146;8.174;2024-01-07T07:59:48;7.63;;;6.10;;
1777;SDS011;71547;50.146;8.174;2024-01-07T08:02:15;7.93;;;6.90;;
1777;SDS011;71547;50.146;8.174;2024-01-07T08:04:43;9.13;;;7.25;;
1777;SDS011;71547;50.146;8.174;2024-01-07T08:07:10;8.15;;;6.70;;
1777;SDS011;71547;50.146;8.174;2024-01-07T08:09:38;9.45;;;7.50;;
1777;SDS011;71547;50.146;8.174;2024-01-07T08:12:06;7.80;;;6.70;;
1777;SDS011;71547;50.146;8.174;2024-01-07T08:14:33;7.20;;;6.25;;
1777;SDS011;71547;50.146;8.174;2024-01-07T08:17:02;7.38;;;6.60;;
1777;SDS011;71547;50.146;8.174;2024-01-07T08:19:31;7.72;;;6.18;;
1777;SDS011;71547;50.146;8.174;2024-01-07T08:22:02;7.55;;;6.35;;
1777;SDS011;71547;50.146;8.174;2024-01-07T08:24:29;8.25;;;6.53;;
1777;SDS011;71547;50.146;8.174;2024-01-07T08:26:58;7.38;;;6.60;;
1777;SDS011;71547;50.146;8.174;2024-01-07T08:29:25;9.02;;;7.50;;
1777;SDS011;71547;50.146;8.174;2024-01-07T08:31:52;8.95;;;7.13;;
1777;SDS011;71547;50.146;8.174;2024-01-07T08:34:22;7.20;;;6.50;;
1777;SDS011;71547;50.146;8.174;2024-01-07T08:36:49;9.93;;;6.60;;
1777;SDS011;71547;50.146;8.174;2024-01-07T08:39:19;12.32;;;7.95;;
1777;SDS011;71547;50.146;8.174;2024-01-07T08:41:50;8.65;;;6.95;;
1777;SDS011;71547;50.146;8.174;2024-01-07T08:44:19;10.65;;;7.95;;
1777;SDS011;71547;50.146;8.174;2024-01-07T08:46:46;9.88;;;8.07;;
1777;SDS011;71547;50.146;8.174;2024-01-07T08:49:13;10.27;;;7.60;;
1777;SDS011;71547;50.146;8.174;2024-01-07T08:51:43;9.70;;;8.10;;
1777;SDS011;71547;50.146;8.174;2024-01-07T08:54:10;13.57;;;8.43;;
1777;SDS011;71547;50.146;8.174;2024-01-07T08:56:37;14.77;;;9.50;;
1777;SDS011;71547;50.146;8.174;2024-01-07T08:59:06;11.25;;;8.05;;
1777;SDS011;71547;50.146;8.174;2024-01-07T09:01:36;13.10;;;8.60;;
1777;SDS011;71547;50.146;8.174;2024-01-07T09:04:03;12.63;;;8.30;;
1777;SDS011;71547;50.146;8.174;2024-01-07T09:06:31;12.52;;;9.20;;
1777;SDS011;71547;50.146;8.174;2024-01-07T09:08:58;12.05;;;7.05;;
1777;SDS011;71547;50.146;8.174;2024-01-07T09:12:07;14.55;;;7.72;;
1777;SDS011;71547;50.146;8.174;2024-01-07T09:14:38;11.45;;;8.70;;
1777;SDS011;71547;50.146;8.174;2024-01-07T09:17:37;12.98;;;8.77;;
1777;SDS011;71547;50.146;8.174;2024-01-07T09:20:05;14.25;;;9.18;;
1777;SDS011;71547;50.146;8.174;2024-01-07T09:22:34;11.90;;;7.90;;
1777;SDS011;71547;50.146;8.174;2024-01-07T09:25:02;11.60;;;9.13;;
1777;SDS011;71547;50.146;8.174;2024-01-07T09:27:30;12.25;;;7.75;;
1777;SDS011;71547;50.146;8.174;2024-01-07T09:29:58;10.48;;;7.93;;
1777;SDS011;71547;50.146;8.174;2024-01-07T09:32:25;11.30;;;7.10;;
1777;SDS011;71547;50.146;8.174;2024-01-07T09:34:54;11.90;;;7.57;;
1777;SDS011;71547;50.146;8.174;2024-01-07T09:37:21;10.07;;;7.30;;
1777;SDS011;71547;50.146;8.174;2024-01-07T09:39:56;10.10;;;7.82;;
1777;SDS011;71547;50.146;8.174;2024-01-07T09:42:26;9.48;;;6.93;;
1777;SDS011;71547;50.146;8.174;2024-01-07T09:44:53;14.60;;;8.30;;
1777;SDS011;71547;50.146;8.174;2024-01-07T09:47:20;15.38;;;7.97;;
1777;SDS011;71547;50.146;8.174;2024-01-07T09:49:50;11.93;;;8.10;;
1777;SDS011;71547;50.146;8.174;2024-01-07T09:52:18;10.95;;;8.05;;
1777;SDS011;71547;50.146;8.174;2024-01-07T09:54:48;10.68;;;7.72;;
1777;SDS011;71547;50.146;8.174;2024-01-07T09:57:20;10.90;;;7.57;;
1777;SDS011;71547;50.146;8.174;2024-01-07T09:59:47;10.13;;;7.40;;
1777;SDS011;71547;50.146;8.174;2024-01-07T10:02:15;9.48;;;6.70;;
1777;SDS011;71547;50.146;8.174;2024-01-07T10:04:44;10.57;;;7.70;;
1777;SDS011;71547;50.146;8.174;2024-01-07T10:07:14;10.23;;;7.57;;
1777;SDS011;71547;50.146;8.174;2024-01-07T10:09:44;12.57;;;9.25;;
1777;SDS011;71547;50.146;8.174;2024-01-07T10:12:12;13.27;;;8.75;;
1777;SDS011;71547;50.146;8.174;2024-01-07T10:14:40;13.75;;;8.65;;
1777;SDS011;71547;50.146;8.174;2024-01-07T10:19:54;10.55;;;7.60;;
1777;SDS011;71547;50.146;8.174;2024-01-07T10:22:23;10.98;;;8.00;;
1777;SDS011;71547;50.146;8.174;2024-01-07T10:24:52;9.65;;;8.10;;
1777;SDS011;71547;50.146;8.174;2024-01-07T10:27:19;10.35;;;8.50;;
1777;SDS011;71547;50.146;8.174;2024-01-07T10:29:50;11.10;;;10.00;;
1777;SDS011;71547;50.146;8.174;2024-01-07T10:32:18;13.40;;;11.95;;
1777;SDS011;71547;50.146;8.174;2024-01-07T10:34:46;13.13;;;11.07;;
1777;SDS011;71547;50.146;8.174;2024-01-07T10:37:14;16.05;;;12.75;;
1777;SDS011;71547;50.146;8.174;2024-01-07T10:39:41;32.53;;;23.02;;
1777;SDS011;71547;50.146;8.174;2024-01-07T10:42:10;73.68;;;41.95;;
1777;SDS011;71547;50.146;8.174;2024-01-07T10:44:39;36.88;;;22.38;;
1777;SDS011;71547;50.146;8.174;2024-01-07T10:47:06;34.15;;;22.10;;
1777;SDS011;71547;50.146;8.174;2024-01-07T10:49:36;130.57;;;50.30;;
1777;SDS011;71547;50.146;8.174;2024-01-07T10:52:10;50.08;;;27.38;;
1777;SDS011;71547;50.146;8.174;2024-01-07T10:54:39;29.90;;;17.15;;
1777;SDS011;71547;50.146;8.174;2024-01-07T10:57:13;19.05;;;14.70;;
1777;SDS011;71547;50.146;8.174;2024-01-07T10:59:48;10.80;;;8.70;;
1777;SDS011;71547;50.146;8.174;2024-01-07T11:02:17;9.35;;;8.35;;
1777;SDS011;71547;50.146;8.174;2024-01-07T11:04:49;10.90;;;8.30;;
1777;SDS011;71547;50.146;8.174;2024-01-07T11:07:28;10.85;;;8.88;;
1777;SDS011;71547;50.146;8.174;2024-01-07T11:10:06;10.90;;;9.00;;
1777;SDS011;71547;50.146;8.174;2024-01-07T11:12:40;12.20;;;8.55;;
1777;SDS011;71547;50.146;8.174;2024-01-07T11:15:07;11.10;;;8.95;;
1777;SDS011;71547;50.146;8.174;2024-01-07T11:17:41;11.07;;;9.75;;
1777;SDS011;71547;50.146;8.174;2024-01-07T11:20:18;11.20;;;8.05;;
1777;SDS011;71547;50.146;8.174;2024-01-07T11:22:47;11.80;;;9.13;;
1777;SDS011;71547;50.146;8.174;2024-01-07T11:25:30;9.25;;;7.95;;
1777;SDS011;71547;50.146;8.174;2024-01-07T11:28:01;10.13;;;9.13;;
1777;SDS011;71547;50.146;8.174;2024-01-07T11:30:29;11.38;;;9.05;;
1777;SDS011;71547;50.146;8.174;2024-01-07T11:33:06;9.88;;;8.75;;
1777;SDS011;71547;50.146;8.174;2024-01-07T11:35:54;10.45;;;7.82;;
1777;SDS011;71547;50.146;8.174;2024-01-07T11:38:23;7.72;;;7.07;;
1777;SDS011;71547;50.146;8.174;2024-01-07T11:40:55;7.57;;;6.80;;
1777;SDS011;71547;50.146;8.174;2024-01-07T11:43:27;9.40;;;7.20;;
1777;SDS011;71547;50.146;8.174;2024-01-07T11:45:55;8.75;;;6.85;;
1777;SDS011;71547;50.146;8.174;2024-01-07T11:48:22;8.35;;;7.47;;
1777;SDS011;71547;50.146;8.174;2024-01-07T11:50:50;11.35;;;7.30;;
1777;SDS011;71547;50.146;8.174;2024-01-07T11:53:21;10.23;;;7.82;;
1777;SDS011;71547;50.146;8.174;2024-01-07T11:55:48;10.60;;;8.50;;
1777;SDS011;71547;50.146;8.174;2024-01-07T11:58:15;10.30;;;8.30;;
1777;SDS011;71547;50.146;8.174;2024-01-07T12:00:44;10.65;;;7.53;;
1777;SDS011;71547;50.146;8.174;2024-01-07T12:03:12;8.45;;;6.38;;
1777;SDS011;71547;50.146;8.174;2024-01-07T12:05:39;10.38;;;8.23;;
1777;SDS011;71547;50.146;8.174;2024-01-07T12:08:10;7.97;;;7.10;;
1777;SDS011;71547;50.146;8.174;2024-01-07T12:10:37;11.52;;;7.50;;
1777;SDS011;71547;50.146;8.174;2024-01-07T12:13:04;11.93;;;7.43;;
1777;SDS011;71547;50.146;8.174;2024-01-07T12:15:34;17.73;;;10.13;;
1777;SDS011;71547;50.146;8.174;2024-01-07T12:18:04;11.70;;;9.20;;
1777;SDS011;71547;50.146;8.174;2024-01-07T12:20:35;12.93;;;9.30;;
1777;SDS011;71547;50.146;8.174;2024-01-07T12:23:06;11.32;;;8.20;;
1777;SDS011;71547;50.146;8.174;2024-01-07T12:25:33;16.80;;;11.57;;
1777;SDS011;71547;50.146;8.174;2024-01-07T12:28:06;11.15;;;8.23;;
1777;SDS011;71547;50.146;8.174;2024-01-07T12:30:33;11.80;;;8.18;;
1777;SDS011;71547;50.146;8.174;2024-01-07T12:33:01;11.98;;;8.55;;
1777;SDS011;71547;50.146;8.174;2024-01-07T12:35:32;10.20;;;8.70;;
1777;SDS011;71547;50.146;8.174;2024-01-07T12:38:01;18.67;;;10.35;;
1777;SDS011;71547;50.146;8.174;2024-01-07T12:40:29;16.08;;;10.95;;
1777;SDS011;71547;50.146;8.174;2024-01-07T12:42:56;14.05;;;9.23;;
1777;SDS011;71547;50.146;8.174;2024-01-07T12:45:24;8.35;;;7.38;;
1777;SDS011;71547;50.146;8.174;2024-01-07T12:47:51;9.05;;;8.13;;
1777;SDS011;71547;50.146;8.174;2024-01-07T12:50:25;11.70;;;9.10;;
1777;SDS011;71547;50.146;8.174;2024-01-07T12:52:54;9.13;;;8.23;;
1777;SDS011;71547;50.146;8.174;2024-01-07T12:55:22;10.82;;;7.90;;
1777;SDS011;71547;50.146;8.174;2024-01-07T12:57:49;10.30;;;7.90;;
1777;SDS011;71547;50.146;8.174;2024-01-07T13:00:17;11.00;;;7.72;;
1777;SDS011;71547;50.146;8.174;2024-01-07T13:02:45;9.30;;;8.30;;
1777;SDS011;71547;50.146;8.174;2024-01-07T13:05:12;9.07;;;8.13;;
1777;SDS011;71547;50.146;8.174;2024-01-07T13:07:41;9.07;;;7.55;;
1777;SDS011;71547;50.146;8.174;2024-01-07T13:10:08;13.02;;;8.70;;
1777;SDS011;71547;50.146;8.174;2024-01-07T13:12:36;9.05;;;7.20;;
1777;SDS011;71547;50.146;8.174;2024-01-07T13:15:14;8.50;;;7.22;;
1777;SDS011;71547;50.146;8.174;2024-01-07T13:17:46;14.50;;;10.77;;
1777;SDS011;71547;50.146;8.174;2024-01-07T13:20:16;9.20;;;6.85;;
1777;SDS011;71547;50.146;8.174;2024-01-07T13:22:48;7.28;;;6.53;;
1777;SDS011;71547;50.146;8.174;2024-01-07T13:25:15;8.45;;;7.30;;
1777;SDS011;71547;50.146;8.174;2024-01-07T13:27:42;9.15;;;7.68;;
1777;SDS011;71547;50.146;8.174;2024-01-07T13:30:10;10.48;;;7.88;;
1777;SDS011;71547;50.146;8.174;2024-01-07T13:32:37;10.50;;;6.35;;
1777;SDS011;71547;50.146;8.174;2024-01-07T13:35:05;10.80;;;6.63;;
1777;SDS011;71547;50.146;8.174;2024-01-07T13:37:37;8.45;;;6.18;;
1777;SDS011;71547;50.146;8.174;2024-01-07T13:40:10;11.65;;;7.50;;
1777;SDS011;71547;50.146;8.174;2024-01-07T13:42:40;8.50;;;6.47;;
1777;SDS011;71547;50.146;8.174;2024-01-07T13:45:08;10.73;;;7.40;;
1777;SDS011;71547;50.146;8.174;2024-01-07T13:47:35;6.95;;;5.72;;
1777;SDS011;71547;50.146;8.174;2024-01-07T13:50:03;7.25;;;5.70;;
1777;SDS011;71547;50.146;8.174;2024-01-07T13:52:35;13.32;;;6.18;;
1777;SDS011;71547;50.146;8.174;2024-01-07T13:55:07;6.15;;;5.53;;
1777;SDS011;71547;50.146;8.174;2024-01-07T13:57:36;7.40;;;6.28;;
1777;SDS011;71547;50.146;8.174;2024-01-07T14:00:05;9.68;;;5.60;;
1777;SDS011;71547;50.146;8.174;2024-01-07T14:02:36;7.50;;;6.20;;
1777;SDS011;71547;50.146;8.174;2024-01-07T14:05:06;8.43;;;5.90;;
1777;SDS011;71547;50.146;8.174;2024-01-07T14:07:35;7.90;;;5.78;;
1777;SDS011;71547;50.146;8.174;2024-01-07T14:10:02;6.35;;;5.65;;
1777;SDS011;71547;50.146;8.174;2024-01-07T14:12:32;8.38;;;4.82;;
1777;SDS011;71547;50.146;8.174;2024-01-07T14:14:59;6.50;;;5.88;;
1777;SDS011;71547;50.146;8.174;2024-01-07T14:17:27;7.03;;;5.97;;
1777;SDS011;71547;50.146;8.174;2024-01-07T14:19:54;7.30;;;5.60;;
1777;SDS011;71547;50.146;8.174;2024-01-07T14:22:21;9.43;;;6.40;;
1777;SDS011;71547;50.146;8.174;2024-01-07T14:24:49;8.15;;;6.15;;
1777;SDS011;71547;50.146;8.174;2024-01-07T14:27:16;6.80;;;5.35;;
1777;SDS011;71547;50.146;8.174;2024-01-07T14:29:45;6.63;;;5.70;;
1777;SDS011;71547;50.146;8.174;2024-01-07T14:32:12;6.10;;;5.57;;
1777;SDS011;71547;50.146;8.174;2024-01-07T14:34:40;7.13;;;5.65;;
1777;SDS011;71547;50.146;8.174;2024-01-07T14:37:08;7.57;;;6.78;;
1777;SDS011;71547;50.146;8.174;2024-01-07T14:39:36;8.63;;;6.00;;
1777;SDS011;71547;50.146;8.174;2024-01-07T14:42:04;7.28;;;5.88;;
1777;SDS011;71547;50.146;8.174;2024-01-07T14:44:31;8.15;;;6.13;;
1777;SDS011;71547;50.146;8.174;2024-01-07T14:47:14;5.13;;;4.50;;
1777;SDS011;71547;50.146;8.174;2024-01-07T14:49:42;6.43;;;5.05;;
1777;SDS011;71547;50.146;8.174;2024-01-07T14:52:12;5.82;;;5.25;;
1777;SDS011;71547;50.146;8.174;2024-01-07T14:54:39;8.95;;;6.45;;
1777;SDS011;71547;50.146;8.174;2024-01-07T14:57:06;7.70;;;5.50;;
1777;SDS011;71547;50.146;8.174;2024-01-07T14:59:38;10.48;;;6.40;;
1777;SDS011;71547;50.146;8.174;2024-01-07T15:02:05;4.55;;;4.15;;
1777;SDS011;71547;50.146;8.174;2024-01-07T15:04:35;5.65;;;4.40;;
1777;SDS011;71547;50.146;8.174;2024-01-07T15:07:03;6.80;;;5.65;;
1777;SDS011;71547;50.146;8.174;2024-01-07T15:09:31;5.95;;;4.88;;
1777;SDS011;71547;50.146;8.174;2024-01-07T15:11:58;4.65;;;4.03;;
1777;SDS011;71547;50.146;8.174;2024-01-07T15:14:27;4.40;;;3.92;;